createdAt,value
2022-07-28T00:02:26.061Z,19.10
2022-07-28T00:04:52.773Z,19.10
2022-07-28T00:07:20.029Z,18.90
2022-07-28T00:09:47.083Z,18.90
2022-07-28T00:12:13.749Z,18.90
2022-07-28T00:14:40.481Z,18.70
2022-07-28T00:17:07.407Z,18.80
2022-07-28T00:19:34.367Z,18.70
2022-07-28T00:22:02.451Z,18.70
2022-07-28T00:24:29.338Z,18.70
2022-07-28T00:26:55.972Z,18.70
2022-07-28T00:29:22.687Z,18.70
2022-07-28T00:31:49.617Z,18.70
2022-07-28T00:34:16.949Z,18.60
2022-07-28T00:36:43.909Z,18.60
2022-07-28T00:39:10.581Z,18.60
2022-07-28T00:41:37.268Z,18.60
2022-07-28T00:44:07.509Z,18.60
2022-07-28T00:46:34.447Z,18.50
2022-07-28T00:49:01.809Z,18.50
2022-07-28T00:51:29.501Z,18.50
2022-07-28T00:53:56.581Z,18.50
2022-07-28T00:56:23.653Z,18.40
2022-07-28T00:58:50.687Z,18.30
2022-07-28T01:01:19.986Z,18.20
2022-07-28T01:03:52.043Z,18.20
2022-07-28T01:06:47.851Z,18.00
2022-07-28T01:09:33.012Z,17.90
2022-07-28T01:12:37.518Z,17.80
2022-07-28T01:15:13.047Z,17.70
2022-07-28T01:17:58.464Z,17.60
2022-07-28T01:20:37.029Z,17.50
2022-07-28T01:23:12.505Z,17.40
2022-07-28T01:25:48.540Z,17.30
2022-07-28T01:28:34.295Z,17.30
2022-07-28T01:31:05.247Z,17.40
2022-07-28T01:33:38.442Z,17.40
2022-07-28T01:36:15.337Z,17.30
2022-07-28T01:38:43.817Z,17.30
2022-07-28T01:41:16.285Z,17.20
2022-07-28T01:43:48.231Z,17.20
2022-07-28T01:46:16.374Z,17.10
2022-07-28T01:48:45.521Z,17.10
2022-07-28T01:51:14.170Z,17.00
2022-07-28T01:53:42.964Z,16.90
2022-07-28T01:56:10.208Z,16.90
2022-07-28T01:58:38.598Z,16.90
2022-07-28T02:01:05.937Z,16.90
2022-07-28T02:03:34.542Z,17.00
2022-07-28T02:06:03.283Z,17.00
2022-07-28T02:08:31.821Z,17.10
2022-07-28T02:11:18.143Z,17.10
2022-07-28T02:13:48.188Z,17.10
2022-07-28T02:16:17.275Z,17.10
2022-07-28T02:18:45.154Z,17.20
2022-07-28T02:21:13.164Z,17.10
2022-07-28T02:23:43.291Z,17.10
2022-07-28T02:26:12.242Z,17.10
2022-07-28T02:28:43.621Z,17.00
2022-07-28T02:31:20.005Z,17.00
2022-07-28T02:33:59.337Z,17.00
2022-07-28T02:36:31.531Z,17.00
2022-07-28T02:39:07.140Z,17.00
2022-07-28T02:41:38.662Z,17.00
2022-07-28T02:44:19.895Z,16.90
2022-07-28T02:46:51.324Z,17.00
2022-07-28T02:49:30.279Z,17.00
2022-07-28T02:51:59.691Z,17.00
2022-07-28T02:54:28.738Z,16.90
2022-07-28T02:56:59.136Z,16.80
2022-07-28T02:59:32.081Z,16.70
2022-07-28T03:01:59.425Z,16.60
2022-07-28T03:04:45.030Z,16.60
2022-07-28T03:07:12.415Z,16.60
2022-07-28T03:09:43.861Z,16.60
2022-07-28T03:12:10.799Z,16.50
2022-07-28T03:14:37.977Z,16.50
2022-07-28T03:17:05.392Z,16.50
2022-07-28T03:19:32.420Z,16.40
2022-07-28T03:21:59.103Z,16.40
2022-07-28T03:24:29.524Z,16.40
2022-07-28T03:27:03.429Z,16.40
2022-07-28T03:29:32.520Z,16.50
2022-07-28T03:32:00.150Z,16.50
2022-07-28T03:34:28.122Z,16.50
2022-07-28T03:37:01.330Z,16.50
2022-07-28T03:39:32.648Z,16.60
2022-07-28T03:42:01.217Z,16.60
2022-07-28T03:44:29.717Z,16.50
2022-07-28T03:46:56.611Z,16.50
2022-07-28T03:49:23.330Z,16.40
2022-07-28T03:51:50.039Z,16.40
2022-07-28T03:54:16.951Z,16.40
2022-07-28T03:56:43.878Z,16.30
2022-07-28T03:59:11.298Z,16.20
2022-07-28T04:01:38.331Z,16.20
2022-07-28T04:04:05.426Z,16.30
2022-07-28T04:06:32.048Z,16.30
2022-07-28T04:08:58.648Z,16.30
2022-07-28T04:11:25.244Z,16.30
2022-07-28T04:13:54.580Z,16.30
2022-07-28T04:16:22.339Z,16.20
2022-07-28T04:18:49.221Z,16.20
2022-07-28T04:21:16.177Z,16.20
2022-07-28T04:23:42.882Z,16.20
2022-07-28T04:26:09.565Z,16.20
2022-07-28T04:28:36.192Z,16.20
2022-07-28T04:31:02.974Z,16.10
2022-07-28T04:33:30.869Z,16.10
2022-07-28T04:35:57.604Z,16.10
2022-07-28T04:38:24.364Z,16.10
2022-07-28T04:40:51.071Z,16.10
2022-07-28T04:43:17.951Z,16.20
2022-07-28T04:45:53.229Z,16.00
2022-07-28T04:48:21.244Z,15.90
2022-07-28T04:50:47.845Z,15.90
2022-07-28T04:53:14.586Z,15.90
2022-07-28T04:55:41.220Z,16.00
2022-07-28T04:58:09.321Z,16.00
2022-07-28T05:00:36.168Z,16.00
2022-07-28T05:03:04.162Z,16.00
2022-07-28T05:05:31.120Z,16.10
2022-07-28T05:07:57.725Z,16.10
2022-07-28T05:10:24.447Z,16.10
2022-07-28T05:12:52.431Z,16.10
2022-07-28T05:15:19.484Z,16.10
2022-07-28T05:17:46.078Z,16.10
2022-07-28T05:20:13.721Z,16.10
2022-07-28T05:22:45.363Z,16.20
2022-07-28T05:25:20.233Z,16.30
2022-07-28T05:27:48.310Z,16.50
2022-07-28T05:30:16.392Z,16.70
2022-07-28T05:32:45.296Z,16.90
2022-07-28T05:35:12.642Z,17.10
2022-07-28T05:37:39.301Z,17.20
2022-07-28T05:40:13.640Z,17.40
2022-07-28T05:42:41.561Z,17.50
2022-07-28T05:45:15.013Z,17.50
2022-07-28T05:47:48.802Z,17.60
2022-07-28T05:50:16.884Z,17.70
2022-07-28T05:52:43.925Z,17.60
2022-07-28T05:55:10.791Z,17.70
2022-07-28T05:57:38.086Z,17.60
2022-07-28T06:00:13.359Z,17.70
2022-07-28T06:02:41.393Z,17.70
2022-07-28T06:05:08.859Z,17.80
2022-07-28T06:07:42.828Z,17.80
2022-07-28T06:10:12.177Z,17.80
2022-07-28T06:12:44.006Z,17.80
2022-07-28T06:15:15.580Z,17.90
2022-07-28T06:17:42.612Z,17.90
2022-07-28T06:20:10.764Z,18.00
2022-07-28T06:23:06.610Z,18.00
2022-07-28T06:25:33.276Z,18.00
2022-07-28T06:28:02.677Z,18.20
2022-07-28T06:30:30.082Z,18.30
2022-07-28T06:32:57.483Z,18.40
2022-07-28T06:35:24.595Z,18.50
2022-07-28T06:37:52.399Z,18.60
2022-07-28T06:40:21.170Z,18.70
2022-07-28T06:42:47.806Z,18.70
2022-07-28T06:45:19.565Z,18.80
2022-07-28T06:47:52.022Z,18.80
2022-07-28T06:50:24.988Z,18.90
2022-07-28T06:52:54.079Z,18.90
2022-07-28T06:55:20.870Z,19.00
2022-07-28T06:57:47.522Z,19.10
2022-07-28T07:00:14.391Z,19.20
2022-07-28T07:02:41.694Z,19.20
2022-07-28T07:05:10.007Z,19.30
2022-07-28T07:07:42.517Z,19.30
2022-07-28T07:10:12.681Z,19.40
2022-07-28T07:12:39.405Z,19.50
2022-07-28T07:15:06.927Z,19.60
2022-07-28T07:17:33.671Z,19.60
2022-07-28T07:20:00.303Z,19.60
2022-07-28T07:22:31.923Z,19.70
2022-07-28T07:25:06.658Z,19.60
2022-07-28T07:27:33.288Z,19.80
2022-07-28T07:29:59.886Z,19.80
2022-07-28T07:32:26.508Z,19.90
2022-07-28T07:34:53.276Z,19.90
2022-07-28T07:37:21.177Z,19.90
2022-07-28T07:39:47.816Z,19.90
2022-07-28T07:42:14.497Z,19.90
2022-07-28T07:44:41.132Z,20.00
2022-07-28T07:47:16.718Z,20.10
2022-07-28T07:49:45.474Z,20.20
2022-07-28T07:52:13.395Z,20.20
2022-07-28T07:54:40.033Z,20.30
2022-07-28T07:57:06.753Z,20.30
2022-07-28T07:59:33.332Z,20.40
2022-07-28T08:02:00.591Z,20.50
2022-07-28T08:04:28.651Z,20.50
2022-07-28T08:06:55.694Z,20.60
2022-07-28T08:09:23.205Z,20.70
2022-07-28T08:11:49.995Z,20.70
2022-07-28T08:14:17.617Z,20.80
2022-07-28T08:16:44.737Z,20.90
2022-07-28T08:19:11.746Z,20.90
2022-07-28T08:21:38.714Z,21.00
2022-07-28T08:24:05.942Z,21.00
2022-07-28T08:26:32.805Z,21.10
2022-07-28T08:28:59.460Z,21.10
2022-07-28T08:31:26.635Z,21.20
2022-07-28T08:33:55.007Z,21.30
2022-07-28T08:36:22.425Z,21.30
2022-07-28T08:38:49.078Z,21.30
2022-07-28T08:41:46.248Z,21.40
2022-07-28T08:44:20.484Z,21.50
2022-07-28T08:46:51.053Z,21.50
2022-07-28T08:49:18.266Z,21.60
2022-07-28T08:51:48.451Z,21.60
2022-07-28T08:54:22.418Z,21.70
2022-07-28T08:56:50.043Z,21.70
2022-07-28T08:59:17.170Z,21.70
2022-07-28T09:01:44.625Z,21.80
2022-07-28T09:04:12.719Z,21.80
2022-07-28T09:06:42.746Z,21.80
2022-07-28T09:09:10.177Z,21.90
2022-07-28T09:11:39.977Z,22.00
2022-07-28T09:14:06.864Z,22.10
2022-07-28T09:16:33.788Z,22.20
2022-07-28T09:19:00.441Z,22.30
2022-07-28T09:21:27.234Z,22.40
2022-07-28T09:23:54.334Z,22.40
2022-07-28T09:26:20.990Z,22.50
2022-07-28T09:28:57.372Z,22.50
2022-07-28T09:31:27.960Z,22.60
2022-07-28T09:34:03.438Z,22.70
2022-07-28T09:36:38.183Z,22.70
2022-07-28T09:39:04.993Z,22.80
2022-07-28T09:41:55.799Z,22.90
2022-07-28T09:44:24.635Z,22.90
2022-07-28T09:46:51.584Z,23.00
2022-07-28T09:49:18.965Z,23.10
2022-07-28T09:52:03.519Z,23.20
2022-07-28T09:54:30.480Z,23.20
2022-07-28T09:56:57.428Z,23.20
2022-07-28T09:59:24.410Z,23.10
2022-07-28T10:02:01.723Z,23.10
2022-07-28T10:04:31.633Z,23.10
2022-07-28T10:07:13.865Z,23.10
2022-07-28T10:09:41.237Z,23.30
2022-07-28T10:12:22.421Z,23.40
2022-07-28T10:14:51.619Z,23.50
2022-07-28T10:17:34.409Z,23.50
2022-07-28T10:20:05.143Z,23.60
2022-07-28T10:22:38.303Z,23.70
2022-07-28T10:25:12.687Z,23.80
2022-07-28T10:27:42.684Z,23.90
2022-07-28T10:30:10.765Z,23.90
2022-07-28T10:32:42.816Z,23.80
2022-07-28T10:35:14.466Z,23.70
2022-07-28T10:38:02.430Z,23.80
2022-07-28T10:40:55.493Z,23.80
2022-07-28T10:43:23.659Z,23.90
2022-07-28T10:46:05.704Z,24.00
2022-07-28T10:48:37.802Z,24.10
2022-07-28T10:51:06.053Z,24.10
2022-07-28T10:53:54.539Z,24.20
2022-07-28T10:56:57.208Z,24.30
2022-07-28T10:59:58.181Z,24.40
2022-07-28T11:02:45.577Z,24.40
2022-07-28T11:05:40.326Z,24.50
2022-07-28T11:08:28.332Z,24.60
2022-07-28T11:11:05.560Z,24.60
2022-07-28T11:13:36.954Z,24.60
2022-07-28T11:16:13.858Z,24.60
2022-07-28T11:19:40.151Z,24.70
2022-07-28T11:22:27.924Z,24.90
2022-07-28T11:24:58.009Z,24.90
2022-07-28T11:28:00.911Z,25.00
2022-07-28T11:30:28.592Z,25.00
2022-07-28T11:32:55.296Z,25.00
2022-07-28T11:35:42.336Z,25.10
2022-07-28T11:38:10.841Z,25.20
2022-07-28T11:41:26.900Z,25.20
2022-07-28T11:43:53.624Z,25.20
2022-07-28T11:46:23.980Z,25.30
2022-07-28T11:49:14.826Z,25.30
2022-07-28T11:52:10.498Z,25.40
2022-07-28T11:54:38.795Z,25.40
2022-07-28T11:57:11.920Z,25.50
2022-07-28T11:59:53.456Z,25.60
2022-07-28T12:02:23.530Z,25.60
2022-07-28T12:05:08.219Z,25.70
2022-07-28T12:07:40.523Z,25.80
2022-07-28T12:10:51.947Z,25.90
2022-07-28T12:13:13.127Z,25.90
2022-07-28T12:15:39.793Z,25.90
2022-07-28T12:18:11.278Z,25.90
2022-07-28T12:20:48.573Z,25.90
2022-07-28T12:23:15.600Z,26.00
2022-07-28T12:25:43.946Z,26.00
2022-07-28T12:28:22.642Z,26.00
2022-07-28T12:30:55.038Z,26.10
2022-07-28T12:33:29.362Z,26.20
2022-07-28T12:35:58.328Z,26.30
2022-07-28T12:38:27.629Z,26.30
2022-07-28T12:40:54.657Z,26.40
2022-07-28T12:43:23.447Z,26.50
2022-07-28T12:45:50.291Z,26.50
2022-07-28T12:48:18.791Z,26.50
2022-07-28T12:50:51.034Z,26.70
2022-07-28T12:53:22.993Z,26.70
2022-07-28T12:56:00.603Z,26.70
2022-07-28T12:58:28.752Z,26.60
2022-07-28T13:00:56.348Z,26.70
2022-07-28T13:03:29.917Z,26.80
2022-07-28T13:06:03.314Z,26.90
2022-07-28T13:08:44.103Z,27.10
2022-07-28T13:11:42.058Z,27.20
2022-07-28T13:14:00.528Z,27.30
2022-07-28T13:16:28.617Z,27.40
2022-07-28T13:19:03.376Z,27.40
2022-07-28T13:22:01.598Z,27.50
2022-07-28T13:24:30.779Z,27.50
2022-07-28T13:26:58.957Z,27.60
2022-07-28T13:29:25.884Z,27.60
2022-07-28T13:31:54.759Z,27.50
2022-07-28T13:34:21.767Z,27.60
2022-07-28T13:36:48.587Z,27.70
2022-07-28T13:39:15.249Z,27.70
2022-07-28T13:41:57.114Z,27.70
2022-07-28T13:44:28.964Z,27.90
2022-07-28T13:46:59.011Z,28.00
2022-07-28T13:49:27.439Z,28.00
2022-07-28T13:51:54.962Z,28.00
2022-07-28T13:54:21.778Z,28.00
2022-07-28T13:56:48.949Z,28.00
2022-07-28T13:59:15.949Z,28.00
2022-07-28T14:01:42.716Z,28.00
2022-07-28T14:04:14.766Z,28.00
2022-07-28T14:06:44.969Z,28.10
2022-07-28T14:09:18.338Z,28.30
2022-07-28T14:11:49.690Z,28.30
2022-07-28T14:14:20.528Z,28.30
2022-07-28T14:16:56.960Z,28.30
2022-07-28T14:19:37.890Z,28.30
2022-07-28T14:22:13.618Z,28.40
2022-07-28T14:24:43.717Z,28.50
2022-07-28T14:27:11.246Z,28.50
2022-07-28T14:29:38.613Z,28.50
2022-07-28T14:32:09.274Z,28.40
2022-07-28T14:34:36.030Z,28.40
2022-07-28T14:37:08.587Z,28.60
2022-07-28T14:39:36.438Z,28.70
2022-07-28T14:42:04.094Z,28.80
2022-07-28T14:44:31.002Z,28.70
2022-07-28T14:46:57.786Z,28.70
2022-07-28T14:49:24.524Z,28.70
2022-07-28T14:51:51.216Z,28.70
2022-07-28T14:54:18.365Z,28.70
2022-07-28T14:56:45.410Z,28.70
2022-07-28T14:59:12.111Z,28.80
2022-07-28T15:01:38.951Z,28.90
2022-07-28T15:04:06.108Z,28.90
2022-07-28T15:06:32.813Z,28.90
2022-07-28T15:08:59.552Z,28.80
2022-07-28T15:11:26.271Z,28.80
2022-07-28T15:13:52.932Z,28.80
2022-07-28T15:16:19.630Z,28.90
2022-07-28T15:18:47.527Z,28.90
2022-07-28T15:21:17.376Z,28.80
2022-07-28T15:23:44.605Z,28.80
2022-07-28T15:26:11.706Z,28.70
2022-07-28T15:28:45.912Z,28.70
2022-07-28T15:31:12.662Z,28.80
2022-07-28T15:33:48.489Z,28.70
2022-07-28T15:36:25.243Z,28.70
2022-07-28T15:38:53.087Z,28.70
2022-07-28T15:41:22.721Z,28.60
2022-07-28T15:43:49.510Z,28.60
2022-07-28T15:46:16.493Z,28.60
2022-07-28T15:48:46.048Z,28.60
2022-07-28T15:51:12.787Z,28.60
2022-07-28T15:53:42.465Z,28.60
2022-07-28T15:56:11.747Z,28.60
2022-07-28T15:58:38.372Z,28.60
2022-07-28T16:01:05.185Z,28.70
2022-07-28T16:03:32.107Z,28.70
2022-07-28T16:06:00.785Z,28.70
2022-07-28T16:08:28.112Z,28.80
2022-07-28T16:10:55.105Z,28.90
2022-07-28T16:13:31.323Z,28.90
2022-07-28T16:16:09.566Z,29.00
2022-07-28T16:18:38.312Z,29.00
2022-07-28T16:21:06.815Z,29.00
2022-07-28T16:23:33.992Z,29.00
2022-07-28T16:26:00.990Z,28.90
2022-07-28T16:28:27.627Z,29.00
2022-07-28T16:30:54.421Z,29.00
2022-07-28T16:33:21.204Z,28.90
2022-07-28T16:35:47.913Z,28.80
2022-07-28T16:38:14.607Z,28.80
2022-07-28T16:40:41.273Z,28.80
2022-07-28T16:43:08.794Z,28.60
2022-07-28T16:45:35.930Z,28.60
2022-07-28T16:48:03.178Z,28.50
2022-07-28T16:50:31.678Z,28.40
2022-07-28T16:52:59.343Z,28.40
2022-07-28T16:55:26.577Z,28.30
2022-07-28T16:57:54.598Z,28.30
2022-07-28T17:00:21.813Z,28.20
2022-07-28T17:02:48.453Z,28.00
2022-07-28T17:05:15.224Z,27.60
2022-07-28T17:07:45.306Z,27.30
2022-07-28T17:10:14.440Z,27.30
2022-07-28T17:12:41.872Z,27.10
2022-07-28T17:15:21.782Z,27.00
2022-07-28T17:17:50.745Z,26.90
2022-07-28T17:20:17.538Z,26.80
2022-07-28T17:22:44.928Z,26.90
2022-07-28T17:25:43.656Z,26.80
2022-07-28T17:27:59.063Z,26.80
2022-07-28T17:30:26.170Z,27.00
2022-07-28T17:32:58.024Z,27.00
2022-07-28T17:35:31.918Z,27.10
2022-07-28T17:38:03.083Z,27.10
2022-07-28T17:40:30.019Z,27.10
2022-07-28T17:42:56.724Z,27.10
2022-07-28T17:45:24.306Z,27.10
2022-07-28T17:47:51.566Z,27.10
2022-07-28T17:50:18.486Z,27.10
2022-07-28T17:52:45.648Z,27.10
2022-07-28T17:55:37.387Z,27.10
2022-07-28T17:58:22.782Z,27.00
2022-07-28T18:01:09.619Z,26.90
2022-07-28T18:03:57.155Z,26.90
2022-07-28T18:06:28.390Z,26.80
2022-07-28T18:08:55.221Z,26.70
2022-07-28T18:11:21.832Z,26.70
2022-07-28T18:14:14.150Z,26.70
2022-07-28T18:16:35.162Z,26.70
2022-07-28T18:19:02.861Z,26.70
2022-07-28T18:21:29.781Z,26.60
2022-07-28T18:23:56.460Z,26.20
2022-07-28T18:26:23.129Z,26.00
2022-07-28T18:28:50.144Z,25.70
2022-07-28T18:31:25.812Z,25.50
2022-07-28T18:33:52.536Z,25.20
2022-07-28T18:36:19.344Z,25.00
2022-07-28T18:38:45.987Z,25.00
2022-07-28T18:41:12.574Z,24.90
2022-07-28T18:43:46.693Z,24.80
2022-07-28T18:46:13.814Z,24.70
2022-07-28T18:48:40.554Z,24.60
2022-07-28T18:51:07.497Z,24.50
2022-07-28T18:53:35.483Z,24.40
2022-07-28T18:56:06.429Z,24.40
2022-07-28T18:58:33.417Z,24.20
2022-07-28T19:01:00.403Z,24.00
2022-07-28T19:03:27.058Z,23.80
2022-07-28T19:05:54.285Z,23.70
2022-07-28T19:08:21.553Z,23.70
2022-07-28T19:10:48.228Z,23.70
2022-07-28T19:13:15.176Z,23.70
2022-07-28T19:15:41.931Z,23.60
2022-07-28T19:18:11.121Z,23.60
2022-07-28T19:20:39.246Z,23.20
2022-07-28T19:23:05.913Z,23.10
2022-07-28T19:25:32.940Z,23.10
2022-07-28T19:27:59.569Z,23.00
2022-07-28T19:30:26.433Z,23.00
2022-07-28T19:32:53.028Z,23.00
2022-07-28T19:35:19.645Z,23.00
2022-07-28T19:37:46.515Z,23.10
2022-07-28T19:40:13.267Z,23.10
2022-07-28T19:42:39.881Z,23.10
2022-07-28T19:45:07.357Z,22.90
2022-07-28T19:47:36.896Z,22.70
2022-07-28T19:50:05.002Z,22.40
2022-07-28T19:52:31.835Z,22.40
2022-07-28T19:54:58.464Z,22.30
2022-07-28T19:57:25.319Z,22.40
2022-07-28T19:59:51.905Z,22.50
2022-07-28T20:02:18.582Z,22.40
2022-07-28T20:04:45.232Z,22.30
2022-07-28T20:07:11.858Z,22.30
2022-07-28T20:09:38.509Z,22.30
2022-07-28T20:12:05.493Z,22.40
2022-07-28T20:14:34.478Z,22.50
2022-07-28T20:17:01.168Z,22.50
2022-07-28T20:19:27.816Z,22.60
2022-07-28T20:21:54.626Z,22.40
2022-07-28T20:24:21.251Z,22.30
2022-07-28T20:26:49.295Z,22.30
2022-07-28T20:29:16.025Z,22.00
2022-07-28T20:31:42.647Z,22.00
2022-07-28T20:34:12.546Z,22.00
2022-07-28T20:36:39.715Z,22.10
2022-07-28T20:39:27.463Z,22.00
2022-07-28T20:41:53.047Z,22.00
2022-07-28T20:44:28.700Z,22.00
2022-07-28T20:46:58.690Z,22.10
2022-07-28T20:49:25.420Z,22.00
2022-07-28T20:51:52.112Z,21.90
2022-07-28T20:54:19.048Z,21.90
2022-07-28T20:56:45.750Z,21.90
2022-07-28T20:59:13.279Z,21.80
2022-07-28T21:01:41.006Z,21.60
2022-07-28T21:04:11.402Z,21.70
2022-07-28T21:06:38.684Z,21.60
2022-07-28T21:09:05.409Z,21.60
2022-07-28T21:11:35.098Z,21.60
2022-07-28T21:14:02.149Z,21.40
2022-07-28T21:16:28.898Z,21.30
2022-07-28T21:18:55.626Z,21.20
2022-07-28T21:21:22.347Z,21.20
2022-07-28T21:23:49.419Z,21.20
2022-07-28T21:26:16.879Z,21.30
2022-07-28T21:29:02.437Z,21.30
2022-07-28T21:31:29.128Z,21.20
2022-07-28T21:33:55.853Z,21.10
2022-07-28T21:36:22.647Z,21.00
2022-07-28T21:38:49.452Z,21.00
2022-07-28T21:41:16.618Z,20.90
2022-07-28T21:43:43.398Z,21.00
2022-07-28T21:46:11.633Z,21.00
2022-07-28T21:48:38.486Z,21.00
2022-07-28T21:51:16.386Z,21.00
2022-07-28T21:53:47.398Z,21.00
2022-07-28T21:56:14.355Z,20.90
2022-07-28T21:58:41.947Z,20.80
2022-07-28T22:01:09.535Z,20.80
2022-07-28T22:03:39.773Z,20.80
2022-07-28T22:06:07.357Z,20.70
2022-07-28T22:08:34.297Z,20.60
2022-07-28T22:11:01.328Z,20.60
2022-07-28T22:13:28.460Z,20.70
2022-07-28T22:15:55.270Z,20.60
2022-07-28T22:18:21.898Z,20.50
2022-07-28T22:20:48.607Z,20.60
2022-07-28T22:23:20.090Z,20.50
2022-07-28T22:25:56.157Z,20.60
2022-07-28T22:28:29.921Z,20.60
2022-07-28T22:30:57.611Z,20.60
2022-07-28T22:33:24.326Z,20.60
2022-07-28T22:35:51.425Z,20.60
2022-07-28T22:38:18.351Z,20.60
2022-07-28T22:40:46.063Z,20.50
2022-07-28T22:43:13.253Z,20.50
2022-07-28T22:45:49.497Z,20.50
2022-07-28T22:48:18.320Z,20.50
2022-07-28T22:50:44.989Z,20.50
2022-07-28T22:53:11.617Z,20.50
2022-07-28T22:55:39.121Z,20.40
2022-07-28T22:58:06.054Z,20.40
2022-07-28T23:00:32.821Z,20.50
2022-07-28T23:03:02.765Z,20.40
2022-07-28T23:05:30.773Z,20.30
2022-07-28T23:07:58.970Z,20.40
2022-07-28T23:10:26.256Z,20.30
2022-07-28T23:12:55.183Z,20.30
2022-07-28T23:15:25.228Z,20.30
2022-07-28T23:18:07.501Z,20.10
2022-07-28T23:20:34.113Z,20.10
2022-07-28T23:23:00.723Z,20.10
2022-07-28T23:25:28.081Z,20.20
2022-07-28T23:27:54.676Z,20.20
2022-07-28T23:30:21.302Z,20.10
2022-07-28T23:32:49.965Z,20.10
2022-07-28T23:35:16.649Z,20.00
2022-07-28T23:37:43.341Z,20.00
2022-07-28T23:40:10.758Z,19.90
2022-07-28T23:42:37.374Z,19.90
2022-07-28T23:45:04.829Z,19.90
2022-07-28T23:47:34.148Z,19.90
2022-07-28T23:50:01.936Z,19.80
2022-07-28T23:52:28.763Z,19.80
2022-07-28T23:54:55.535Z,19.80
2022-07-28T23:57:22.242Z,19.80
2022-07-28T23:59:48.964Z,19.70
